sensor_id;sensor_type;location;lat;lon;timestamp;P1;durP1;ratioP1;P2;durP2;ratioP2
10637;SDS011;47007;49.252;8.904;2023-09-30T00:00:30;2.80;;;1.48;;
10637;SDS011;47007;49.252;8.904;2023-09-30T00:01:14;3.10;;;1.55;;
10637;SDS011;47007;49.252;8.904;2023-09-30T00:01:56;3.28;;;1.30;;
10637;SDS011;47007;49.252;8.904;2023-09-30T00:02:40;3.22;;;1.02;;
10637;SDS011;47007;49.252;8.904;2023-09-30T00:03:22;2.00;;;1.20;;
10637;SDS011;47007;49.252;8.904;2023-09-30T00:04:04;1.67;;;1.42;;
10637;SDS011;47007;49.252;8.904;2023-09-30T00:04:48;1.98;;;1.15;;
10637;SDS011;47007;49.252;8.904;2023-09-30T00:05:30;1.85;;;1.30;;
10637;SDS011;47007;49.252;8.904;2023-09-30T00:06:12;2.58;;;1.23;;
10637;SDS011;47007;49.252;8.904;2023-09-30T00:06:53;1.00;;;0.95;;
10637;SDS011;47007;49.252;8.904;2023-09-30T00:07:36;2.08;;;1.33;;
10637;SDS011;47007;49.252;8.904;2023-09-30T00:08:18;3.65;;;1.38;;
10637;SDS011;47007;49.252;8.904;2023-09-30T00:09:00;2.67;;;1.55;;
10637;SDS011;47007;49.252;8.904;2023-09-30T00:09:42;3.78;;;1.98;;
10637;SDS011;47007;49.252;8.904;2023-09-30T00:10:24;2.78;;;2.22;;
10637;SDS011;47007;49.252;8.904;2023-09-30T00:11:05;3.70;;;1.95;;
10637;SDS011;47007;49.252;8.904;2023-09-30T00:11:47;2.45;;;1.95;;
10637;SDS011;47007;49.252;8.904;2023-09-30T00:12:29;3.22;;;2.10;;
10637;SDS011;47007;49.252;8.904;2023-09-30T00:13:11;3.13;;;2.17;;
10637;SDS011;47007;49.252;8.904;2023-09-30T00:13:53;3.55;;;2.33;;
10637;SDS011;47007;49.252;8.904;2023-09-30T00:14:35;2.92;;;1.95;;
10637;SDS011;47007;49.252;8.904;2023-09-30T00:15:19;2.15;;;1.80;;
10637;SDS011;47007;49.252;8.904;2023-09-30T00:16:00;3.22;;;1.85;;
10637;SDS011;47007;49.252;8.904;2023-09-30T00:16:42;3.25;;;1.92;;
10637;SDS011;47007;49.252;8.904;2023-09-30T00:17:25;2.63;;;1.80;;
10637;SDS011;47007;49.252;8.904;2023-09-30T00:18:07;2.75;;;1.90;;
10637;SDS011;47007;49.252;8.904;2023-09-30T00:18:49;2.58;;;1.80;;
10637;SDS011;47007;49.252;8.904;2023-09-30T00:19:31;3.08;;;1.80;;
10637;SDS011;47007;49.252;8.904;2023-09-30T00:20:14;3.70;;;1.95;;
10637;SDS011;47007;49.252;8.904;2023-09-30T00:20:56;4.00;;;2.30;;
10637;SDS011;47007;49.252;8.904;2023-09-30T00:21:39;4.22;;;2.30;;
10637;SDS011;47007;49.252;8.904;2023-09-30T00:22:21;3.97;;;2.10;;
10637;SDS011;47007;49.252;8.904;2023-09-30T00:23:03;2.85;;;2.10;;
10637;SDS011;47007;49.252;8.904;2023-09-30T00:23:45;3.22;;;2.22;;
10637;SDS011;47007;49.252;8.904;2023-09-30T00:24:27;2.75;;;2.22;;
10637;SDS011;47007;49.252;8.904;2023-09-30T00:25:09;2.80;;;1.80;;
10637;SDS011;47007;49.252;8.904;2023-09-30T00:25:51;4.60;;;2.33;;
10637;SDS011;47007;49.252;8.904;2023-09-30T00:26:33;3.20;;;2.60;;
10637;SDS011;47007;49.252;8.904;2023-09-30T00:27:15;2.72;;;2.15;;
10637;SDS011;47007;49.252;8.904;2023-09-30T00:27:57;4.38;;;2.40;;
10637;SDS011;47007;49.252;8.904;2023-09-30T00:28:39;3.05;;;2.50;;
10637;SDS011;47007;49.252;8.904;2023-09-30T00:29:21;2.92;;;2.10;;
10637;SDS011;47007;49.252;8.904;2023-09-30T00:30:03;2.95;;;1.92;;
10637;SDS011;47007;49.252;8.904;2023-09-30T00:30:45;4.60;;;2.22;;
10637;SDS011;47007;49.252;8.904;2023-09-30T00:31:29;2.95;;;2.15;;
10637;SDS011;47007;49.252;8.904;2023-09-30T00:32:12;3.28;;;2.10;;
10637;SDS011;47007;49.252;8.904;2023-09-30T00:32:54;2.30;;;2.08;;
10637;SDS011;47007;49.252;8.904;2023-09-30T00:33:36;3.10;;;2.15;;
10637;SDS011;47007;49.252;8.904;2023-09-30T00:34:18;3.53;;;2.20;;
10637;SDS011;47007;49.252;8.904;2023-09-30T00:35:03;3.20;;;2.13;;
10637;SDS011;47007;49.252;8.904;2023-09-30T00:35:45;2.90;;;2.17;;
10637;SDS011;47007;49.252;8.904;2023-09-30T00:36:27;3.22;;;2.60;;
10637;SDS011;47007;49.252;8.904;2023-09-30T00:37:09;2.90;;;2.17;;
10637;SDS011;47007;49.252;8.904;2023-09-30T00:37:51;2.60;;;2.40;;
10637;SDS011;47007;49.252;8.904;2023-09-30T00:38:33;2.25;;;1.90;;
10637;SDS011;47007;49.252;8.904;2023-09-30T00:39:15;3.13;;;2.10;;
10637;SDS011;47007;49.252;8.904;2023-09-30T00:39:57;2.28;;;1.85;;
10637;SDS011;47007;49.252;8.904;2023-09-30T00:40:38;5.45;;;2.47;;
10637;SDS011;47007;49.252;8.904;2023-09-30T00:41:20;2.47;;;1.98;;
10637;SDS011;47007;49.252;8.904;2023-09-30T00:42:02;2.78;;;2.17;;
10637;SDS011;47007;49.252;8.904;2023-09-30T00:42:46;3.55;;;1.90;;
10637;SDS011;47007;49.252;8.904;2023-09-30T00:43:28;2.78;;;1.73;;
10637;SDS011;47007;49.252;8.904;2023-09-30T00:44:10;2.30;;;2.10;;
10637;SDS011;47007;49.252;8.904;2023-09-30T00:44:52;2.78;;;1.58;;
10637;SDS011;47007;49.252;8.904;2023-09-30T00:45:34;1.80;;;1.48;;
10637;SDS011;47007;49.252;8.904;2023-09-30T00:46:29;1.88;;;1.67;;
10637;SDS011;47007;49.252;8.904;2023-09-30T00:47:14;2.78;;;1.88;;
10637;SDS011;47007;49.252;8.904;2023-09-30T00:47:59;1.95;;;1.52;;
10637;SDS011;47007;49.252;8.904;2023-09-30T00:48:41;2.35;;;1.60;;
10637;SDS011;47007;49.252;8.904;2023-09-30T00:49:24;1.85;;;1.60;;
10637;SDS011;47007;49.252;8.904;2023-09-30T00:50:06;1.80;;;1.48;;
10637;SDS011;47007;49.252;8.904;2023-09-30T00:50:49;4.72;;;2.10;;
10637;SDS011;47007;49.252;8.904;2023-09-30T00:51:31;2.47;;;1.73;;
10637;SDS011;47007;49.252;8.904;2023-09-30T00:52:14;1.33;;;1.23;;
10637;SDS011;47007;49.252;8.904;2023-09-30T00:52:57;2.53;;;1.80;;
10637;SDS011;47007;49.252;8.904;2023-09-30T00:53:39;1.90;;;1.58;;
10637;SDS011;47007;49.252;8.904;2023-09-30T00:54:22;2.72;;;1.45;;
10637;SDS011;47007;49.252;8.904;2023-09-30T00:55:06;2.40;;;1.48;;
10637;SDS011;47007;49.252;8.904;2023-09-30T00:55:49;3.08;;;1.77;;
10637;SDS011;47007;49.252;8.904;2023-09-30T00:56:32;1.60;;;1.30;;
10637;SDS011;47007;49.252;8.904;2023-09-30T00:57:15;2.33;;;1.50;;
10637;SDS011;47007;49.252;8.904;2023-09-30T00:57:58;3.55;;;1.75;;
10637;SDS011;47007;49.252;8.904;2023-09-30T00:58:39;3.70;;;1.92;;
10637;SDS011;47007;49.252;8.904;2023-09-30T00:59:22;2.33;;;1.70;;
10637;SDS011;47007;49.252;8.904;2023-09-30T01:00:08;3.72;;;2.05;;
10637;SDS011;47007;49.252;8.904;2023-09-30T01:00:54;3.33;;;1.83;;
10637;SDS011;47007;49.252;8.904;2023-09-30T01:01:38;2.13;;;1.83;;
10637;SDS011;47007;49.252;8.904;2023-09-30T01:02:20;3.47;;;1.90;;
10637;SDS011;47007;49.252;8.904;2023-09-30T01:03:04;3.05;;;1.88;;
10637;SDS011;47007;49.252;8.904;2023-09-30T01:03:47;3.10;;;2.10;;
10637;SDS011;47007;49.252;8.904;2023-09-30T01:04:30;1.70;;;1.60;;
10637;SDS011;47007;49.252;8.904;2023-09-30T01:05:11;3.47;;;2.10;;
10637;SDS011;47007;49.252;8.904;2023-09-30T01:05:54;2.55;;;1.67;;
10637;SDS011;47007;49.252;8.904;2023-09-30T01:06:36;2.03;;;1.52;;
10637;SDS011;47007;49.252;8.904;2023-09-30T01:07:18;2.83;;;2.00;;
10637;SDS011;47007;49.252;8.904;2023-09-30T01:08:03;3.08;;;1.80;;
10637;SDS011;47007;49.252;8.904;2023-09-30T01:08:45;3.33;;;2.17;;
10637;SDS011;47007;49.252;8.904;2023-09-30T01:09:27;3.13;;;2.28;;
10637;SDS011;47007;49.252;8.904;2023-09-30T01:10:09;2.53;;;2.33;;
10637;SDS011;47007;49.252;8.904;2023-09-30T01:10:51;3.15;;;2.17;;
10637;SDS011;47007;49.252;8.904;2023-09-30T01:11:33;2.67;;;1.80;;
10637;SDS011;47007;49.252;8.904;2023-09-30T01:12:15;2.55;;;2.08;;
10637;SDS011;47007;49.252;8.904;2023-09-30T01:12:57;3.25;;;2.10;;
10637;SDS011;47007;49.252;8.904;2023-09-30T01:13:39;2.28;;;1.98;;
10637;SDS011;47007;49.252;8.904;2023-09-30T01:14:27;3.45;;;2.55;;
10637;SDS011;47007;49.252;8.904;2023-09-30T01:15:10;3.58;;;2.20;;
10637;SDS011;47007;49.252;8.904;2023-09-30T01:15:52;2.35;;;1.73;;
10637;SDS011;47007;49.252;8.904;2023-09-30T01:16:34;2.75;;;2.15;;
10637;SDS011;47007;49.252;8.904;2023-09-30T01:17:15;2.33;;;2.13;;
10637;SDS011;47007;49.252;8.904;2023-09-30T01:17:58;3.53;;;2.40;;
10637;SDS011;47007;49.252;8.904;2023-09-30T01:18:41;3.35;;;2.00;;
10637;SDS011;47007;49.252;8.904;2023-09-30T01:19:25;3.70;;;2.65;;
10637;SDS011;47007;49.252;8.904;2023-09-30T01:20:06;2.70;;;2.45;;
10637;SDS011;47007;49.252;8.904;2023-09-30T01:20:50;2.90;;;2.60;;
10637;SDS011;47007;49.252;8.904;2023-09-30T01:21:34;3.45;;;2.40;;
10637;SDS011;47007;49.252;8.904;2023-09-30T01:22:16;3.40;;;3.05;;
10637;SDS011;47007;49.252;8.904;2023-09-30T01:22:57;2.70;;;2.50;;
10637;SDS011;47007;49.252;8.904;2023-09-30T01:23:39;3.72;;;2.38;;
10637;SDS011;47007;49.252;8.904;2023-09-30T01:24:21;2.40;;;2.20;;
10637;SDS011;47007;49.252;8.904;2023-09-30T01:25:03;3.13;;;2.70;;
10637;SDS011;47007;49.252;8.904;2023-09-30T01:25:46;3.30;;;2.45;;
10637;SDS011;47007;49.252;8.904;2023-09-30T01:26:27;2.70;;;2.40;;
10637;SDS011;47007;49.252;8.904;2023-09-30T01:27:10;3.80;;;2.45;;
10637;SDS011;47007;49.252;8.904;2023-09-30T01:27:52;3.70;;;2.83;;
10637;SDS011;47007;49.252;8.904;2023-09-30T01:28:33;3.45;;;2.53;;
10637;SDS011;47007;49.252;8.904;2023-09-30T01:29:15;2.95;;;2.65;;
10637;SDS011;47007;49.252;8.904;2023-09-30T01:29:59;2.65;;;2.45;;
10637;SDS011;47007;49.252;8.904;2023-09-30T01:30:41;3.38;;;2.55;;
10637;SDS011;47007;49.252;8.904;2023-09-30T01:31:24;2.63;;;2.28;;
10637;SDS011;47007;49.252;8.904;2023-09-30T01:32:06;3.40;;;2.70;;
10637;SDS011;47007;49.252;8.904;2023-09-30T01:32:50;2.60;;;2.40;;
10637;SDS011;47007;49.252;8.904;2023-09-30T01:33:32;4.07;;;2.58;;
10637;SDS011;47007;49.252;8.904;2023-09-30T01:34:16;3.28;;;2.53;;
10637;SDS011;47007;49.252;8.904;2023-09-30T01:34:58;2.88;;;2.42;;
10637;SDS011;47007;49.252;8.904;2023-09-30T01:35:40;3.65;;;2.50;;
10637;SDS011;47007;49.252;8.904;2023-09-30T01:36:22;4.28;;;2.30;;
10637;SDS011;47007;49.252;8.904;2023-09-30T01:37:03;3.80;;;2.42;;
10637;SDS011;47007;49.252;8.904;2023-09-30T01:37:46;3.70;;;2.55;;
10637;SDS011;47007;49.252;8.904;2023-09-30T01:38:28;3.00;;;2.70;;
10637;SDS011;47007;49.252;8.904;2023-09-30T01:39:10;2.78;;;2.33;;
10637;SDS011;47007;49.252;8.904;2023-09-30T01:39:53;3.13;;;2.83;;
10637;SDS011;47007;49.252;8.904;2023-09-30T01:40:36;2.63;;;2.42;;
10637;SDS011;47007;49.252;8.904;2023-09-30T01:41:19;3.95;;;2.85;;
10637;SDS011;47007;49.252;8.904;2023-09-30T01:42:01;5.15;;;2.70;;
10637;SDS011;47007;49.252;8.904;2023-09-30T01:42:42;3.60;;;2.70;;
10637;SDS011;47007;49.252;8.904;2023-09-30T01:43:25;3.22;;;2.30;;
10637;SDS011;47007;49.252;8.904;2023-09-30T01:44:07;3.45;;;2.58;;
10637;SDS011;47007;49.252;8.904;2023-09-30T01:44:50;2.58;;;2.35;;
10637;SDS011;47007;49.252;8.904;2023-09-30T01:45:32;2.47;;;2.28;;
10637;SDS011;47007;49.252;8.904;2023-09-30T01:46:14;3.72;;;2.80;;
10637;SDS011;47007;49.252;8.904;2023-09-30T01:46:56;3.55;;;2.53;;
10637;SDS011;47007;49.252;8.904;2023-09-30T01:47:38;4.00;;;2.90;;
10637;SDS011;47007;49.252;8.904;2023-09-30T01:48:20;3.45;;;3.05;;
10637;SDS011;47007;49.252;8.904;2023-09-30T01:49:02;3.35;;;2.55;;
10637;SDS011;47007;49.252;8.904;2023-09-30T01:49:45;2.65;;;2.28;;
10637;SDS011;47007;49.252;8.904;2023-09-30T01:50:27;4.35;;;2.42;;
10637;SDS011;47007;49.252;8.904;2023-09-30T01:51:09;2.60;;;2.40;;
10637;SDS011;47007;49.252;8.904;2023-09-30T01:51:50;4.05;;;2.47;;
10637;SDS011;47007;49.252;8.904;2023-09-30T01:52:32;3.28;;;2.63;;
10637;SDS011;47007;49.252;8.904;2023-09-30T01:53:14;3.15;;;2.58;;
10637;SDS011;47007;49.252;8.904;2023-09-30T01:53:56;5.05;;;2.55;;
10637;SDS011;47007;49.252;8.904;2023-09-30T01:54:38;3.85;;;2.85;;
10637;SDS011;47007;49.252;8.904;2023-09-30T01:55:20;2.97;;;2.50;;
10637;SDS011;47007;49.252;8.904;2023-09-30T01:56:02;2.53;;;2.30;;
10637;SDS011;47007;49.252;8.904;2023-09-30T01:56:44;3.95;;;2.58;;
10637;SDS011;47007;49.252;8.904;2023-09-30T01:57:26;3.15;;;2.20;;
10637;SDS011;47007;49.252;8.904;2023-09-30T01:58:08;2.60;;;2.15;;
10637;SDS011;47007;49.252;8.904;2023-09-30T01:58:52;2.53;;;2.33;;
10637;SDS011;47007;49.252;8.904;2023-09-30T01:59:34;4.07;;;2.58;;
10637;SDS011;47007;49.252;8.904;2023-09-30T02:00:16;3.45;;;2.58;;
10637;SDS011;47007;49.252;8.904;2023-09-30T02:01:02;3.42;;;2.58;;
10637;SDS011;47007;49.252;8.904;2023-09-30T02:01:45;3.33;;;2.20;;
10637;SDS011;47007;49.252;8.904;2023-09-30T02:02:27;2.53;;;2.33;;
10637;SDS011;47007;49.252;8.904;2023-09-30T02:03:09;2.55;;;2.35;;
10637;SDS011;47007;49.252;8.904;2023-09-30T02:03:53;3.22;;;2.65;;
10637;SDS011;47007;49.252;8.904;2023-09-30T02:04:35;3.45;;;2.50;;
10637;SDS011;47007;49.252;8.904;2023-09-30T02:05:16;3.92;;;2.60;;
10637;SDS011;47007;49.252;8.904;2023-09-30T02:05:58;3.47;;;2.85;;
10637;SDS011;47007;49.252;8.904;2023-09-30T02:06:41;3.47;;;3.17;;
10637;SDS011;47007;49.252;8.904;2023-09-30T02:07:23;4.30;;;2.83;;
10637;SDS011;47007;49.252;8.904;2023-09-30T02:08:05;3.42;;;3.08;;
10637;SDS011;47007;49.252;8.904;2023-09-30T02:08:47;4.55;;;3.22;;
10637;SDS011;47007;49.252;8.904;2023-09-30T02:09:29;4.32;;;3.20;;
10637;SDS011;47007;49.252;8.904;2023-09-30T02:10:13;3.35;;;3.05;;
10637;SDS011;47007;49.252;8.904;2023-09-30T02:10:55;4.40;;;3.35;;
10637;SDS011;47007;49.252;8.904;2023-09-30T02:11:36;2.78;;;2.58;;
10637;SDS011;47007;49.252;8.904;2023-09-30T02:12:19;3.45;;;2.83;;
10637;SDS011;47007;49.252;8.904;2023-09-30T02:13:01;3.25;;;2.58;;
10637;SDS011;47007;49.252;8.904;2023-09-30T02:13:43;2.53;;;2.33;;
10637;SDS011;47007;49.252;8.904;2023-09-30T02:14:26;3.63;;;2.72;;
10637;SDS011;47007;49.252;8.904;2023-09-30T02:15:07;3.65;;;2.60;;
10637;SDS011;47007;49.252;8.904;2023-09-30T02:15:50;3.45;;;2.40;;
10637;SDS011;47007;49.252;8.904;2023-09-30T02:16:33;2.67;;;2.47;;
10637;SDS011;47007;49.252;8.904;2023-09-30T02:17:17;2.75;;;2.40;;
10637;SDS011;47007;49.252;8.904;2023-09-30T02:17:58;4.13;;;2.58;;
10637;SDS011;47007;49.252;8.904;2023-09-30T02:18:42;4.88;;;2.65;;
10637;SDS011;47007;49.252;8.904;2023-09-30T02:19:26;2.78;;;2.45;;
10637;SDS011;47007;49.252;8.904;2023-09-30T02:20:12;3.85;;;2.58;;
10637;SDS011;47007;49.252;8.904;2023-09-30T02:20:58;4.05;;;3.25;;
10637;SDS011;47007;49.252;8.904;2023-09-30T02:21:41;3.25;;;2.95;;
10637;SDS011;47007;49.252;8.904;2023-09-30T02:22:23;4.32;;;2.85;;
10637;SDS011;47007;49.252;8.904;2023-09-30T02:23:09;3.10;;;2.63;;
10637;SDS011;47007;49.252;8.904;2023-09-30T02:23:54;3.47;;;2.75;;
10637;SDS011;47007;49.252;8.904;2023-09-30T02:24:37;3.20;;;2.78;;
10637;SDS011;47007;49.252;8.904;2023-09-30T02:25:21;4.38;;;2.75;;
10637;SDS011;47007;49.252;8.904;2023-09-30T02:26:04;2.88;;;2.40;;
10637;SDS011;47007;49.252;8.904;2023-09-30T02:26:47;3.42;;;2.88;;
10637;SDS011;47007;49.252;8.904;2023-09-30T02:27:29;2.83;;;2.38;;
10637;SDS011;47007;49.252;8.904;2023-09-30T02:28:11;2.53;;;2.33;;
10637;SDS011;47007;49.252;8.904;2023-09-30T02:28:54;2.60;;;2.38;;
10637;SDS011;47007;49.252;8.904;2023-09-30T02:29:36;3.95;;;2.25;;
10637;SDS011;47007;49.252;8.904;2023-09-30T02:30:18;3.20;;;2.90;;
10637;SDS011;47007;49.252;8.904;2023-09-30T02:31:00;3.67;;;2.92;;
10637;SDS011;47007;49.252;8.904;2023-09-30T02:31:42;4.22;;;2.80;;
10637;SDS011;47007;49.252;8.904;2023-09-30T02:32:24;3.75;;;3.10;;
10637;SDS011;47007;49.252;8.904;2023-09-30T02:33:06;3.40;;;3.10;;
10637;SDS011;47007;49.252;8.904;2023-09-30T02:33:48;3.90;;;3.00;;
10637;SDS011;47007;49.252;8.904;2023-09-30T02:34:30;3.65;;;2.60;;
10637;SDS011;47007;49.252;8.904;2023-09-30T02:35:13;4.50;;;2.80;;
10637;SDS011;47007;49.252;8.904;2023-09-30T02:35:57;3.67;;;2.88;;
10637;SDS011;47007;49.252;8.904;2023-09-30T02:36:38;2.90;;;2.50;;
10637;SDS011;47007;49.252;8.904;2023-09-30T02:37:21;3.75;;;2.80;;
10637;SDS011;47007;49.252;8.904;2023-09-30T02:38:02;2.60;;;2.40;;
10637;SDS011;47007;49.252;8.904;2023-09-30T02:38:44;2.80;;;2.53;;
10637;SDS011;47007;49.252;8.904;2023-09-30T02:39:27;3.67;;;2.80;;
10637;SDS011;47007;49.252;8.904;2023-09-30T02:40:10;5.65;;;3.22;;
10637;SDS011;47007;49.252;8.904;2023-09-30T02:40:53;4.63;;;4.00;;
10637;SDS011;47007;49.252;8.904;2023-09-30T02:41:36;4.57;;;3.05;;
10637;SDS011;47007;49.252;8.904;2023-09-30T02:42:19;3.10;;;2.80;;
10637;SDS011;47007;49.252;8.904;2023-09-30T02:43:05;5.50;;;2.70;;
10637;SDS011;47007;49.252;8.904;2023-09-30T02:43:47;4.45;;;3.00;;
10637;SDS011;47007;49.252;8.904;2023-09-30T02:44:28;4.13;;;2.88;;
10637;SDS011;47007;49.252;8.904;2023-09-30T02:45:11;2.90;;;2.67;;
10637;SDS011;47007;49.252;8.904;2023-09-30T02:45:54;3.05;;;2.75;;
10637;SDS011;47007;49.252;8.904;2023-09-30T02:46:36;3.00;;;2.70;;
10637;SDS011;47007;49.252;8.904;2023-09-30T02:47:20;2.70;;;2.50;;
10637;SDS011;47007;49.252;8.904;2023-09-30T02:48:02;4.90;;;3.28;;
10637;SDS011;47007;49.252;8.904;2023-09-30T02:48:44;3.08;;;2.78;;
10637;SDS011;47007;49.252;8.904;2023-09-30T02:49:26;2.85;;;2.58;;
10637;SDS011;47007;49.252;8.904;2023-09-30T02:50:09;3.25;;;2.80;;
10637;SDS011;47007;49.252;8.904;2023-09-30T02:50:55;3.47;;;2.65;;
10637;SDS011;47007;49.252;8.904;2023-09-30T02:51:37;3.10;;;2.83;;
10637;SDS011;47007;49.252;8.904;2023-09-30T02:52:19;4.13;;;2.72;;
10637;SDS011;47007;49.252;8.904;2023-09-30T02:53:00;5.18;;;3.03;;
10637;SDS011;47007;49.252;8.904;2023-09-30T02:53:42;3.15;;;2.80;;
10637;SDS011;47007;49.252;8.904;2023-09-30T02:54:24;3.70;;;2.78;;
10637;SDS011;47007;49.252;8.904;2023-09-30T02:55:09;2.92;;;2.70;;
10637;SDS011;47007;49.252;8.904;2023-09-30T02:55:52;3.03;;;2.72;;
10637;SDS011;47007;49.252;8.904;2023-09-30T02:56:37;2.97;;;2.63;;
10637;SDS011;47007;49.252;8.904;2023-09-30T02:57:20;4.65;;;3.03;;
10637;SDS011;47007;49.252;8.904;2023-09-30T02:58:02;3.97;;;3.33;;
10637;SDS011;47007;49.252;8.904;2023-09-30T02:58:44;4.38;;;3.97;;
10637;SDS011;47007;49.252;8.904;2023-09-30T02:59:27;3.92;;;3.63;;
10637;SDS011;47007;49.252;8.904;2023-09-30T03:00:09;4.03;;;3.63;;
10637;SDS011;47007;49.252;8.904;2023-09-30T03:01:09;3.95;;;3.53;;
10637;SDS011;47007;49.252;8.904;2023-09-30T03:01:54;4.32;;;3.80;;
10637;SDS011;47007;49.252;8.904;2023-09-30T03:02:37;4.50;;;3.80;;
10637;SDS011;47007;49.252;8.904;2023-09-30T03:03:20;4.00;;;3.60;;
10637;SDS011;47007;49.252;8.904;2023-09-30T03:04:03;3.88;;;3.20;;
10637;SDS011;47007;49.252;8.904;2023-09-30T03:04:49;4.03;;;3.25;;
10637;SDS011;47007;49.252;8.904;2023-09-30T03:05:32;3.67;;;3.10;;
10637;SDS011;47007;49.252;8.904;2023-09-30T03:06:15;3.40;;;3.10;;
10637;SDS011;47007;49.252;8.904;2023-09-30T03:06:57;3.92;;;3.40;;
10637;SDS011;47007;49.252;8.904;2023-09-30T03:07:39;3.50;;;3.20;;
10637;SDS011;47007;49.252;8.904;2023-09-30T03:08:23;3.90;;;3.60;;
10637;SDS011;47007;49.252;8.904;2023-09-30T03:09:06;3.55;;;3.13;;
10637;SDS011;47007;49.252;8.904;2023-09-30T03:09:50;4.22;;;3.15;;
10637;SDS011;47007;49.252;8.904;2023-09-30T03:10:34;3.38;;;3.03;;
10637;SDS011;47007;49.252;8.904;2023-09-30T03:11:16;3.95;;;3.13;;
10637;SDS011;47007;49.252;8.904;2023-09-30T03:11:58;5.82;;;3.30;;
10637;SDS011;47007;49.252;8.904;2023-09-30T03:12:40;3.47;;;2.78;;
10637;SDS011;47007;49.252;8.904;2023-09-30T03:13:22;5.00;;;3.30;;
10637;SDS011;47007;49.252;8.904;2023-09-30T03:14:04;3.58;;;3.28;;
10637;SDS011;47007;49.252;8.904;2023-09-30T03:14:49;3.85;;;3.47;;
10637;SDS011;47007;49.252;8.904;2023-09-30T03:15:33;3.83;;;3.53;;
10637;SDS011;47007;49.252;8.904;2023-09-30T03:16:14;4.13;;;3.83;;
10637;SDS011;47007;49.252;8.904;2023-09-30T03:16:57;3.90;;;3.60;;
10637;SDS011;47007;49.252;8.904;2023-09-30T03:17:40;3.92;;;3.55;;
10637;SDS011;47007;49.252;8.904;2023-09-30T03:18:23;3.38;;;3.08;;
10637;SDS011;47007;49.252;8.904;2023-09-30T03:19:08;3.63;;;3.25;;
10637;SDS011;47007;49.252;8.904;2023-09-30T03:19:50;3.75;;;3.45;;
10637;SDS011;47007;49.252;8.904;2023-09-30T03:20:32;4.18;;;3.78;;
10637;SDS011;47007;49.252;8.904;2023-09-30T03:21:14;5.35;;;3.88;;
10637;SDS011;47007;49.252;8.904;2023-09-30T03:21:56;5.28;;;3.80;;
10637;SDS011;47007;49.252;8.904;2023-09-30T03:22:38;4.90;;;3.92;;
10637;SDS011;47007;49.252;8.904;2023-09-30T03:23:22;4.40;;;3.75;;
10637;SDS011;47007;49.252;8.904;2023-09-30T03:24:10;4.97;;;3.63;;
10637;SDS011;47007;49.252;8.904;2023-09-30T03:24:56;4.60;;;3.65;;
10637;SDS011;47007;49.252;8.904;2023-09-30T03:25:39;3.53;;;3.20;;
10637;SDS011;47007;49.252;8.904;2023-09-30T03:26:21;3.75;;;3.45;;
10637;SDS011;47007;49.252;8.904;2023-09-30T03:27:02;4.03;;;3.72;;
10637;SDS011;47007;49.252;8.904;2023-09-30T03:27:45;4.13;;;3.67;;
10637;SDS011;47007;49.252;8.904;2023-09-30T03:28:30;4.90;;;4.35;;
10637;SDS011;47007;49.252;8.904;2023-09-30T03:29:11;4.68;;;4.25;;
10637;SDS011;47007;49.252;8.904;2023-09-30T03:29:54;4.97;;;4.20;;
10637;SDS011;47007;49.252;8.904;2023-09-30T03:30:36;4.20;;;3.90;;
10637;SDS011;47007;49.252;8.904;2023-09-30T03:31:21;4.20;;;3.55;;
10637;SDS011;47007;49.252;8.904;2023-09-30T03:32:04;4.57;;;3.70;;
10637;SDS011;47007;49.252;8.904;2023-09-30T03:32:45;3.60;;;3.30;;
10637;SDS011;47007;49.252;8.904;2023-09-30T03:33:27;3.38;;;3.08;;
10637;SDS011;47007;49.252;8.904;2023-09-30T03:34:09;4.00;;;3.60;;
10637;SDS011;47007;49.252;8.904;2023-09-30T03:34:52;4.00;;;3.33;;
10637;SDS011;47007;49.252;8.904;2023-09-30T03:35:34;3.70;;;3.40;;
10637;SDS011;47007;49.252;8.904;2023-09-30T03:36:18;4.57;;;3.40;;
10637;SDS011;47007;49.252;8.904;2023-09-30T03:37:00;4.25;;;3.67;;
10637;SDS011;47007;49.252;8.904;2023-09-30T03:37:42;4.60;;;3.00;;
10637;SDS011;47007;49.252;8.904;2023-09-30T03:38:25;4.00;;;3.15;;
10637;SDS011;47007;49.252;8.904;2023-09-30T03:39:08;4.38;;;3.78;;
10637;SDS011;47007;49.252;8.904;2023-09-30T03:39:50;3.97;;;3.47;;
10637;SDS011;47007;49.252;8.904;2023-09-30T03:40:32;3.67;;;3.38;;
10637;SDS011;47007;49.252;8.904;2023-09-30T03:41:15;3.47;;;3.17;;
10637;SDS011;47007;49.252;8.904;2023-09-30T03:41:57;5.78;;;3.80;;
10637;SDS011;47007;49.252;8.904;2023-09-30T03:42:41;3.78;;;3.33;;
10637;SDS011;47007;49.252;8.904;2023-09-30T03:43:25;3.85;;;3.35;;
10637;SDS011;47007;49.252;8.904;2023-09-30T03:44:07;3.90;;;3.35;;
10637;SDS011;47007;49.252;8.904;2023-09-30T03:44:49;3.65;;;3.10;;
10637;SDS011;47007;49.252;8.904;2023-09-30T03:45:31;3.83;;;2.70;;
10637;SDS011;47007;49.252;8.904;2023-09-30T03:46:18;3.90;;;3.60;;
10637;SDS011;47007;49.252;8.904;2023-09-30T03:47:00;4.80;;;4.30;;
10637;SDS011;47007;49.252;8.904;2023-09-30T03:47:42;5.05;;;3.90;;
10637;SDS011;47007;49.252;8.904;2023-09-30T03:48:25;6.32;;;4.13;;
10637;SDS011;47007;49.252;8.904;2023-09-30T03:49:08;4.82;;;3.97;;
10637;SDS011;47007;49.252;8.904;2023-09-30T03:49:50;4.35;;;3.95;;
10637;SDS011;47007;49.252;8.904;2023-09-30T03:50:31;5.88;;;4.47;;
10637;SDS011;47007;49.252;8.904;2023-09-30T03:51:14;4.20;;;3.80;;
10637;SDS011;47007;49.252;8.904;2023-09-30T03:51:56;5.72;;;4.57;;
10637;SDS011;47007;49.252;8.904;2023-09-30T03:52:39;4.78;;;4.18;;
10637;SDS011;47007;49.252;8.904;2023-09-30T03:53:25;6.07;;;4.10;;
10637;SDS011;47007;49.252;8.904;2023-09-30T03:54:08;4.50;;;4.10;;
10637;SDS011;47007;49.252;8.904;2023-09-30T03:54:50;3.88;;;3.55;;
10637;SDS011;47007;49.252;8.904;2023-09-30T03:55:32;4.40;;;4.00;;
10637;SDS011;47007;49.252;8.904;2023-09-30T03:56:14;4.90;;;4.38;;
10637;SDS011;47007;49.252;8.904;2023-09-30T03:56:57;6.00;;;4.15;;
10637;SDS011;47007;49.252;8.904;2023-09-30T03:57:39;5.20;;;4.20;;
10637;SDS011;47007;49.252;8.904;2023-09-30T03:58:21;4.80;;;4.30;;
10637;SDS011;47007;49.252;8.904;2023-09-30T03:59:03;5.80;;;4.13;;
10637;SDS011;47007;49.252;8.904;2023-09-30T03:59:44;5.32;;;3.67;;
10637;SDS011;47007;49.252;8.904;2023-09-30T04:00:27;4.25;;;3.85;;
10637;SDS011;47007;49.252;8.904;2023-09-30T04:01:10;4.25;;;3.45;;
10637;SDS011;47007;49.252;8.904;2023-09-30T04:01:52;5.38;;;4.57;;
10637;SDS011;47007;49.252;8.904;2023-09-30T04:02:35;5.57;;;4.80;;
10637;SDS011;47007;49.252;8.904;2023-09-30T04:03:17;4.65;;;4.25;;
10637;SDS011;47007;49.252;8.904;2023-09-30T04:03:59;4.70;;;4.30;;
10637;SDS011;47007;49.252;8.904;2023-09-30T04:04:42;6.85;;;4.43;;
10637;SDS011;47007;49.252;8.904;2023-09-30T04:05:24;4.85;;;4.38;;
10637;SDS011;47007;49.252;8.904;2023-09-30T04:06:10;4.90;;;4.32;;
10637;SDS011;47007;49.252;8.904;2023-09-30T04:06:52;4.55;;;4.03;;
10637;SDS011;47007;49.252;8.904;2023-09-30T04:07:34;5.32;;;4.40;;
10637;SDS011;47007;49.252;8.904;2023-09-30T04:08:18;6.82;;;4.85;;
10637;SDS011;47007;49.252;8.904;2023-09-30T04:09:00;4.43;;;4.03;;
10637;SDS011;47007;49.252;8.904;2023-09-30T04:09:43;5.05;;;4.47;;
10637;SDS011;47007;49.252;8.904;2023-09-30T04:10:25;4.90;;;4.30;;
10637;SDS011;47007;49.252;8.904;2023-09-30T04:11:07;5.22;;;4.57;;
10637;SDS011;47007;49.252;8.904;2023-09-30T04:11:48;5.68;;;4.22;;
10637;SDS011;47007;49.252;8.904;2023-09-30T04:12:30;4.80;;;4.38;;
10637;SDS011;47007;49.252;8.904;2023-09-30T04:13:14;4.43;;;3.80;;
10637;SDS011;47007;49.252;8.904;2023-09-30T04:13:56;6.78;;;4.35;;
10637;SDS011;47007;49.252;8.904;2023-09-30T04:14:38;5.53;;;4.53;;
10637;SDS011;47007;49.252;8.904;2023-09-30T04:15:20;5.07;;;4.57;;
10637;SDS011;47007;49.252;8.904;2023-09-30T04:16:02;5.55;;;4.95;;
10637;SDS011;47007;49.252;8.904;2023-09-30T04:16:44;6.45;;;4.85;;
10637;SDS011;47007;49.252;8.904;2023-09-30T04:17:26;6.13;;;4.70;;